createdAt,value
2019-03-22T00:00:01.138Z,3.23
2019-03-22T00:02:29.407Z,3.27
2019-03-22T00:04:58.557Z,3.30
2019-03-22T00:07:26.833Z,3.20
2019-03-22T00:09:55.089Z,3.40
2019-03-22T00:12:23.362Z,3.43
2019-03-22T00:14:51.641Z,3.73
2019-03-22T00:17:20.172Z,3.80
2019-03-22T00:19:48.703Z,3.13
2019-03-22T00:22:17.241Z,3.47
2019-03-22T00:24:45.503Z,3.43
2019-03-22T00:27:16.606Z,3.50
2019-03-22T00:29:43.808Z,3.63
2019-03-22T00:32:12.114Z,3.47
2019-03-22T00:34:40.360Z,3.43
2019-03-22T00:37:08.689Z,3.40
2019-03-22T00:39:37.221Z,3.20
2019-03-22T00:42:05.738Z,3.13
2019-03-22T00:44:33.987Z,3.30
2019-03-22T00:47:02.535Z,3.60
2019-03-22T00:49:30.846Z,3.43
2019-03-22T00:51:59.141Z,3.50
2019-03-22T00:54:27.562Z,3.90
2019-03-22T00:56:55.902Z,3.50
2019-03-22T00:59:24.438Z,4.03
2019-03-22T01:01:52.684Z,3.13
2019-03-22T01:04:20.968Z,3.50
2019-03-22T01:06:49.251Z,3.40
2019-03-22T01:09:17.520Z,3.80
2019-03-22T01:11:46.041Z,3.70
2019-03-22T01:14:14.539Z,3.93
2019-03-22T01:16:42.790Z,3.97
2019-03-22T01:19:11.068Z,3.93
2019-03-22T01:21:39.321Z,3.87
2019-03-22T01:24:07.640Z,4.03
2019-03-22T01:26:35.904Z,3.83
2019-03-22T01:29:04.461Z,3.60
2019-03-22T01:31:32.705Z,3.47
2019-03-22T01:34:01.023Z,3.60
2019-03-22T01:36:29.303Z,3.90
2019-03-22T01:38:57.575Z,3.80
2019-03-22T01:41:25.857Z,3.90
2019-03-22T01:43:54.369Z,3.77
2019-03-22T01:46:22.911Z,4.20
2019-03-22T01:48:51.226Z,4.00
2019-03-22T01:51:19.504Z,3.87
2019-03-22T01:53:47.758Z,3.93
2019-03-22T01:56:16.034Z,3.53
2019-03-22T01:58:44.298Z,3.80
2019-03-22T02:01:12.548Z,3.77
2019-03-22T02:03:40.817Z,4.27
2019-03-22T02:06:09.061Z,4.57
2019-03-22T02:08:37.328Z,4.20
2019-03-22T02:11:05.569Z,4.27
2019-03-22T02:13:33.841Z,4.47
2019-03-22T02:16:02.108Z,4.10
2019-03-22T02:18:30.353Z,4.33
2019-03-22T02:20:58.625Z,4.00
2019-03-22T02:23:26.980Z,3.77
2019-03-22T02:25:55.257Z,3.47
2019-03-22T02:28:23.523Z,3.60
2019-03-22T02:30:51.787Z,3.83
2019-03-22T02:33:20.281Z,3.40
2019-03-22T02:35:48.552Z,3.33
2019-03-22T02:38:16.870Z,3.57
2019-03-22T02:40:45.136Z,3.80
2019-03-22T02:43:13.406Z,3.70
2019-03-22T02:45:41.674Z,3.70
2019-03-22T02:48:10.174Z,3.10
2019-03-22T02:50:38.423Z,3.87
2019-03-22T02:53:06.714Z,3.40
2019-03-22T02:55:35.195Z,3.77
2019-03-22T02:58:19.337Z,3.50
2019-03-22T03:00:33.674Z,3.67
2019-03-22T03:03:01.945Z,3.30
2019-03-22T03:05:30.517Z,3.30
2019-03-22T03:07:58.780Z,3.80
2019-03-22T03:10:27.024Z,3.77
2019-03-22T03:12:55.297Z,3.87
2019-03-22T03:15:23.604Z,3.50
2019-03-22T03:17:51.851Z,3.47
2019-03-22T03:20:20.122Z,3.47
2019-03-22T03:22:48.397Z,3.43
2019-03-22T03:25:16.707Z,3.50
2019-03-22T03:27:45.211Z,3.43
2019-03-22T03:30:16.732Z,3.67
2019-03-22T03:32:45.001Z,3.90
2019-03-22T03:35:13.435Z,3.40
2019-03-22T03:37:41.667Z,3.30
2019-03-22T03:40:11.137Z,3.57
2019-03-22T03:42:39.407Z,3.70
2019-03-22T03:45:10.470Z,3.33
2019-03-22T03:47:38.716Z,3.60
2019-03-22T03:50:07.717Z,3.50
2019-03-22T03:52:39.398Z,3.67
2019-03-22T03:55:06.493Z,3.60
2019-03-22T03:57:34.830Z,3.97
2019-03-22T04:00:05.317Z,3.60
2019-03-22T04:02:33.805Z,3.93
2019-03-22T04:05:02.070Z,4.03
2019-03-22T04:07:30.558Z,3.80
2019-03-22T04:09:58.811Z,4.20
2019-03-22T04:12:27.061Z,4.30
2019-03-22T04:14:55.594Z,3.73
2019-03-22T04:17:24.082Z,3.73
2019-03-22T04:19:52.422Z,4.10
2019-03-22T04:22:20.899Z,4.10
2019-03-22T04:24:49.173Z,4.03
2019-03-22T04:27:17.663Z,4.00
2019-03-22T04:29:45.991Z,3.83
2019-03-22T04:32:14.353Z,3.70
2019-03-22T04:34:42.633Z,4.00
2019-03-22T04:37:11.109Z,3.83
2019-03-22T04:39:39.443Z,4.00
2019-03-22T04:42:07.722Z,3.80
2019-03-22T04:44:35.984Z,4.37
2019-03-22T04:47:04.225Z,4.13
2019-03-22T04:49:32.934Z,3.93
2019-03-22T04:52:01.201Z,3.97
2019-03-22T04:54:29.690Z,4.00
2019-03-22T04:56:57.954Z,4.20
2019-03-22T04:59:26.207Z,4.10
2019-03-22T05:01:54.554Z,4.20
2019-03-22T05:04:22.973Z,4.50
2019-03-22T05:06:51.241Z,4.30
2019-03-22T05:09:19.491Z,4.00
2019-03-22T05:11:47.990Z,3.90
2019-03-22T05:14:16.511Z,4.10
2019-03-22T05:16:44.993Z,4.90
2019-03-22T05:19:13.255Z,4.67
2019-03-22T05:21:41.498Z,4.37
2019-03-22T05:24:09.764Z,4.60
2019-03-22T05:26:38.081Z,4.87
2019-03-22T05:29:06.416Z,4.53
2019-03-22T05:31:40.885Z,4.87
2019-03-22T05:34:09.167Z,4.30
2019-03-22T05:36:37.430Z,4.67
2019-03-22T05:39:07.916Z,4.60
2019-03-22T05:41:36.179Z,4.60
2019-03-22T05:44:04.441Z,4.17
2019-03-22T05:46:32.692Z,4.37
2019-03-22T05:49:00.989Z,4.60
2019-03-22T05:51:29.241Z,4.90
2019-03-22T05:53:57.507Z,4.60
2019-03-22T05:56:25.831Z,4.87
2019-03-22T05:58:54.339Z,5.07
2019-03-22T06:01:22.602Z,5.00
2019-03-22T06:03:50.845Z,4.60
2019-03-22T06:06:19.371Z,4.40
2019-03-22T06:08:47.633Z,5.30
2019-03-22T06:11:15.913Z,4.60
2019-03-22T06:13:44.537Z,5.00
2019-03-22T06:16:13.150Z,4.80
2019-03-22T06:18:41.481Z,4.47
2019-03-22T06:21:09.777Z,5.00
2019-03-22T06:23:38.026Z,5.00
2019-03-22T06:26:06.298Z,5.00
2019-03-22T06:28:34.626Z,5.23
2019-03-22T06:31:02.899Z,5.30
2019-03-22T06:33:31.158Z,4.77
2019-03-22T06:35:59.468Z,5.13
2019-03-22T06:38:28.061Z,5.10
2019-03-22T06:40:56.357Z,4.70
2019-03-22T06:43:24.717Z,5.10
2019-03-22T06:45:53.009Z,5.13
2019-03-22T06:48:21.279Z,4.93
2019-03-22T06:50:49.519Z,5.00
2019-03-22T06:53:17.794Z,4.87
2019-03-22T06:55:46.036Z,4.80
2019-03-22T06:58:14.289Z,5.13
2019-03-22T07:00:42.822Z,5.30
2019-03-22T07:03:11.145Z,5.20
2019-03-22T07:05:39.397Z,5.03
2019-03-22T07:08:07.687Z,4.70
2019-03-22T07:10:36.190Z,5.17
2019-03-22T07:13:04.444Z,5.17
2019-03-22T07:15:32.763Z,4.80
2019-03-22T07:18:01.024Z,5.40
2019-03-22T07:20:29.521Z,5.20
2019-03-22T07:22:57.795Z,5.13
2019-03-22T07:25:26.021Z,5.43
2019-03-22T07:27:54.328Z,5.27
2019-03-22T07:30:22.633Z,5.47
2019-03-22T07:32:50.882Z,5.20
2019-03-22T07:35:19.153Z,5.90
2019-03-22T07:37:47.397Z,5.83
2019-03-22T07:40:15.645Z,5.70
2019-03-22T07:42:43.913Z,5.47
2019-03-22T07:45:12.217Z,5.80
2019-03-22T07:47:40.704Z,6.07
2019-03-22T07:50:11.150Z,5.50
2019-03-22T07:52:39.436Z,5.87
2019-03-22T07:55:07.759Z,6.37
2019-03-22T07:57:36.237Z,6.40
2019-03-22T08:00:09.685Z,6.40
2019-03-22T08:02:37.952Z,6.47
2019-03-22T08:05:06.964Z,6.57
2019-03-22T08:07:35.247Z,6.00
2019-03-22T08:10:08.029Z,6.33
2019-03-22T08:12:36.340Z,6.40
2019-03-22T08:15:08.133Z,6.87
2019-03-22T08:17:35.406Z,6.30
2019-03-22T08:20:05.289Z,6.40
2019-03-22T08:22:33.582Z,6.87
2019-03-22T08:25:02.007Z,6.90
2019-03-22T08:27:30.289Z,6.40
2019-03-22T08:29:58.534Z,6.57
2019-03-22T08:32:26.788Z,6.77
2019-03-22T08:34:55.314Z,6.37
2019-03-22T08:37:23.603Z,7.47
2019-03-22T08:39:52.200Z,7.47
2019-03-22T08:42:20.485Z,8.03
2019-03-22T08:44:48.996Z,7.37
2019-03-22T08:47:17.593Z,6.87
2019-03-22T08:49:46.098Z,7.13
2019-03-22T08:52:14.866Z,7.23
2019-03-22T08:54:43.209Z,6.87
2019-03-22T08:57:11.788Z,7.43
2019-03-22T08:59:40.273Z,7.03
2019-03-22T09:02:08.678Z,7.30
2019-03-22T09:04:37.123Z,7.40
2019-03-22T09:07:05.563Z,7.70
2019-03-22T09:09:41.353Z,7.23
2019-03-22T09:12:04.733Z,7.97
2019-03-22T09:14:33.154Z,24.67
2019-03-22T09:17:01.746Z,26.27
2019-03-22T09:19:30.427Z,28.80
2019-03-22T09:21:59.764Z,29.77
2019-03-22T09:24:38.562Z,29.27
2019-03-22T09:26:58.741Z,27.43
2019-03-22T09:29:27.077Z,26.10
2019-03-22T09:31:55.780Z,22.73
2019-03-22T09:34:33.597Z,19.80
2019-03-22T09:36:54.415Z,17.47
2019-03-22T09:39:22.937Z,17.63
2019-03-22T09:41:51.628Z,16.13
2019-03-22T09:44:20.249Z,15.13
2019-03-22T09:46:48.679Z,14.77
2019-03-22T09:49:17.009Z,14.47
2019-03-22T09:51:45.851Z,15.70
2019-03-22T09:54:14.548Z,15.53
2019-03-22T09:56:47.242Z,15.03
2019-03-22T09:59:13.333Z,14.30
2019-03-22T10:01:41.745Z,13.37
2019-03-22T10:04:10.150Z,12.77
2019-03-22T10:06:39.545Z,11.97
2019-03-22T10:09:08.374Z,12.60
2019-03-22T10:11:36.709Z,11.97
2019-03-22T10:14:05.122Z,12.00
2019-03-22T10:16:33.457Z,11.43
2019-03-22T10:19:02.009Z,11.13
2019-03-22T10:21:30.698Z,10.90
2019-03-22T10:23:59.283Z,10.73
2019-03-22T10:26:27.743Z,10.47
2019-03-22T10:28:57.298Z,10.40
2019-03-22T10:31:36.523Z,10.23
2019-03-22T10:33:56.371Z,10.27
2019-03-22T10:36:24.744Z,9.47
2019-03-22T10:38:53.333Z,9.70
2019-03-22T10:41:21.913Z,8.90
2019-03-22T10:43:50.468Z,9.03
2019-03-22T10:46:19.018Z,9.40
2019-03-22T10:48:47.723Z,8.83
2019-03-22T10:51:16.106Z,8.77
2019-03-22T10:53:44.987Z,9.37
2019-03-22T10:56:13.902Z,8.60
2019-03-22T10:58:43.010Z,8.73
2019-03-22T11:01:11.344Z,8.47
2019-03-22T11:03:39.983Z,8.70
2019-03-22T11:06:08.690Z,7.93
2019-03-22T11:08:37.055Z,7.30
2019-03-22T11:11:05.601Z,7.83
2019-03-22T11:13:33.983Z,7.60
2019-03-22T11:16:02.282Z,6.73
2019-03-22T11:18:37.391Z,7.40
2019-03-22T11:21:05.103Z,6.63
2019-03-22T11:23:31.197Z,6.20
2019-03-22T11:26:04.118Z,6.30
2019-03-22T11:28:30.142Z,6.07
2019-03-22T11:31:04.616Z,6.37
2019-03-22T11:33:29.331Z,5.87
2019-03-22T11:35:57.798Z,6.47
2019-03-22T11:38:26.555Z,6.53
2019-03-22T11:40:55.550Z,6.10
2019-03-22T11:43:25.626Z,5.87
2019-03-22T11:45:54.208Z,6.20
2019-03-22T11:48:22.882Z,6.37
2019-03-22T11:50:51.308Z,5.73
2019-03-22T11:53:19.585Z,6.10
2019-03-22T11:55:50.131Z,6.10
2019-03-22T11:58:19.156Z,5.70
2019-03-22T12:00:47.617Z,5.97
2019-03-22T12:03:16.105Z,6.00
2019-03-22T12:05:44.717Z,5.87
2019-03-22T12:08:13.226Z,6.20
2019-03-22T12:10:41.923Z,5.67
2019-03-22T12:13:10.578Z,5.93
2019-03-22T12:15:39.700Z,6.00
2019-03-22T12:18:08.041Z,5.70
2019-03-22T12:20:36.871Z,5.80
2019-03-22T12:23:06.307Z,5.33
2019-03-22T12:25:35.673Z,6.00
2019-03-22T12:28:04.461Z,6.23
2019-03-22T12:30:33.676Z,6.30
2019-03-22T12:33:02.165Z,5.97
2019-03-22T12:35:31.368Z,5.70
2019-03-22T12:38:00.366Z,6.20
2019-03-22T12:40:28.865Z,6.20
2019-03-22T12:42:57.860Z,18.93
2019-03-22T12:45:31.619Z,14.77
2019-03-22T12:47:59.998Z,12.07
2019-03-22T12:50:28.290Z,12.17
2019-03-22T12:52:56.895Z,10.70
2019-03-22T12:55:25.376Z,10.27
2019-03-22T12:57:54.643Z,13.13
2019-03-22T13:00:24.453Z,16.77
2019-03-22T13:02:53.778Z,16.70
2019-03-22T13:05:22.476Z,15.10
2019-03-22T13:07:51.682Z,11.97
2019-03-22T13:10:27.394Z,11.83
2019-03-22T13:12:56.194Z,11.10
2019-03-22T13:15:25.300Z,10.80
2019-03-22T13:17:53.766Z,10.03
2019-03-22T13:20:22.770Z,11.13
2019-03-22T13:22:52.647Z,10.73
2019-03-22T13:25:21.402Z,10.40
2019-03-22T13:27:49.934Z,11.27
2019-03-22T13:30:30.952Z,11.13
2019-03-22T13:32:59.703Z,11.03
2019-03-22T13:35:30.133Z,10.60
2019-03-22T13:37:58.496Z,15.60
2019-03-22T13:40:27.317Z,13.50
2019-03-22T13:42:56.184Z,14.33
2019-03-22T13:45:24.575Z,14.20
2019-03-22T13:47:53.436Z,15.50
2019-03-22T13:50:21.829Z,18.77
2019-03-22T13:52:50.737Z,19.07
2019-03-22T13:55:19.346Z,16.63
2019-03-22T13:57:48.668Z,19.70
2019-03-22T14:00:19.035Z,15.10
2019-03-22T14:02:47.458Z,23.87
2019-03-22T14:05:16.360Z,29.40
2019-03-22T14:07:44.800Z,31.33
2019-03-22T14:10:32.634Z,33.87
2019-03-22T14:13:02.536Z,33.03
2019-03-22T14:15:31.281Z,35.03
2019-03-22T14:18:00.031Z,29.60
2019-03-22T14:20:28.945Z,35.63
2019-03-22T14:22:58.137Z,35.57
2019-03-22T14:25:27.188Z,36.07
2019-03-22T14:27:56.762Z,35.00
2019-03-22T14:30:25.574Z,35.17
2019-03-22T14:32:54.932Z,35.73
2019-03-22T14:35:23.686Z,36.17
2019-03-22T14:37:52.060Z,35.73
2019-03-22T14:40:20.707Z,35.60
2019-03-22T14:42:49.550Z,36.10
2019-03-22T14:45:18.434Z,34.40
2019-03-22T14:47:47.277Z,34.73
2019-03-22T14:50:16.629Z,31.07
2019-03-22T14:52:45.391Z,30.53
2019-03-22T14:55:14.117Z,28.20
2019-03-22T14:57:49.046Z,26.83
2019-03-22T15:00:13.720Z,25.63
2019-03-22T15:02:42.795Z,24.27
2019-03-22T15:05:11.482Z,23.33
2019-03-22T15:07:40.363Z,22.20
2019-03-22T15:10:11.187Z,22.33
2019-03-22T15:12:39.925Z,22.83
2019-03-22T15:15:11.715Z,21.73
2019-03-22T15:17:58.236Z,21.67
2019-03-22T15:20:40.523Z,21.53
2019-03-22T15:23:13.522Z,21.43
2019-03-22T15:25:45.011Z,20.27
2019-03-22T15:28:30.421Z,23.40
2019-03-22T15:31:03.314Z,22.03
2019-03-22T15:33:36.285Z,23.10
2019-03-22T15:36:15.665Z,23.83
2019-03-22T15:38:46.145Z,23.27
2019-03-22T15:41:14.709Z,23.50
2019-03-22T15:43:43.843Z,25.50
2019-03-22T15:46:12.375Z,26.37
2019-03-22T15:48:41.197Z,23.17
2019-03-22T15:51:09.894Z,21.83
2019-03-22T15:53:38.244Z,25.13
2019-03-22T15:56:06.732Z,22.10
2019-03-22T15:58:36.289Z,22.83
2019-03-22T16:01:06.008Z,22.57
2019-03-22T16:03:43.817Z,21.13
2019-03-22T16:06:04.400Z,22.43
2019-03-22T16:08:33.258Z,21.33
2019-03-22T16:11:01.727Z,19.70
2019-03-22T16:13:30.423Z,21.67
2019-03-22T16:15:58.841Z,21.70
2019-03-22T16:18:27.983Z,21.37
2019-03-22T16:21:00.050Z,23.03
2019-03-22T16:23:26.946Z,24.23
2019-03-22T16:25:55.242Z,23.45
2019-03-22T16:28:24.480Z,23.30
2019-03-22T16:30:53.194Z,23.17
2019-03-22T16:33:21.685Z,21.87
2019-03-22T16:35:50.452Z,21.07
2019-03-22T16:38:18.811Z,23.17
2019-03-22T16:40:47.122Z,23.73
2019-03-22T16:43:15.435Z,24.43
2019-03-22T16:45:43.858Z,24.67
2019-03-22T16:48:12.287Z,22.80
2019-03-22T16:50:40.854Z,24.73
2019-03-22T16:53:09.575Z,24.40
2019-03-22T16:55:37.854Z,23.77
2019-03-22T16:58:06.150Z,24.40
2019-03-22T17:00:35.156Z,24.30
2019-03-22T17:03:03.838Z,24.97
2019-03-22T17:05:32.180Z,25.30
2019-03-22T17:08:00.554Z,24.63
2019-03-22T17:10:28.941Z,23.37
2019-03-22T17:12:57.339Z,23.70
2019-03-22T17:15:26.073Z,22.47
2019-03-22T17:17:54.489Z,22.73
2019-03-22T17:20:23.089Z,21.40
2019-03-22T17:22:51.761Z,20.50
2019-03-22T17:25:20.126Z,18.70
2019-03-22T17:27:48.482Z,18.10
2019-03-22T17:30:16.787Z,19.73
2019-03-22T17:32:45.218Z,18.27
2019-03-22T17:35:13.953Z,17.90
2019-03-22T17:37:42.245Z,16.63
2019-03-22T17:40:10.631Z,16.70
2019-03-22T17:42:38.982Z,15.07
2019-03-22T17:45:09.445Z,16.30
2019-03-22T17:47:37.998Z,16.43
2019-03-22T17:50:07.328Z,15.23
2019-03-22T17:52:35.666Z,14.90
2019-03-22T17:55:06.066Z,14.23
2019-03-22T17:57:34.403Z,13.90
2019-03-22T18:00:03.356Z,13.47
2019-03-22T18:02:32.834Z,13.60
2019-03-22T18:05:01.499Z,13.63
2019-03-22T18:07:30.130Z,12.60
2019-03-22T18:09:58.466Z,12.90
2019-03-22T18:12:26.980Z,12.20
2019-03-22T18:14:55.258Z,12.50
2019-03-22T18:17:23.542Z,12.53
2019-03-22T18:19:52.005Z,11.97
2019-03-22T18:22:20.285Z,12.23
2019-03-22T18:24:48.575Z,12.03
2019-03-22T18:27:16.915Z,11.77
2019-03-22T18:29:45.257Z,11.37
2019-03-22T18:32:13.677Z,12.17
2019-03-22T18:34:42.049Z,11.30
2019-03-22T18:37:10.456Z,10.70
2019-03-22T18:39:38.981Z,11.33
2019-03-22T18:42:07.245Z,11.43
2019-03-22T18:44:35.637Z,11.13
2019-03-22T18:47:04.254Z,11.00
2019-03-22T18:49:32.513Z,11.40
2019-03-22T18:52:01.104Z,11.57
2019-03-22T18:54:29.429Z,11.03
2019-03-22T18:56:57.937Z,11.47
2019-03-22T18:59:26.258Z,10.97
2019-03-22T19:01:54.576Z,10.60
2019-03-22T19:04:23.459Z,10.83
2019-03-22T19:06:51.788Z,11.03
2019-03-22T19:09:20.207Z,11.70
2019-03-22T19:11:48.461Z,10.47
2019-03-22T19:14:16.803Z,10.83
2019-03-22T19:16:45.313Z,10.63
2019-03-22T19:19:13.829Z,10.53
2019-03-22T19:21:42.092Z,10.80
2019-03-22T19:24:10.390Z,10.33
2019-03-22T19:26:38.651Z,10.50
2019-03-22T19:29:06.911Z,10.43
2019-03-22T19:31:35.220Z,10.33
2019-03-22T19:34:03.747Z,10.57
2019-03-22T19:36:32.080Z,10.83
2019-03-22T19:39:00.598Z,10.40
2019-03-22T19:41:28.950Z,10.40
2019-03-22T19:43:57.465Z,10.87
2019-03-22T19:46:25.707Z,9.50
2019-03-22T19:48:53.992Z,10.33
2019-03-22T19:51:22.273Z,10.30
2019-03-22T19:53:50.542Z,10.50
2019-03-22T19:56:18.862Z,11.00
2019-03-22T19:58:47.158Z,10.43
2019-03-22T20:01:15.414Z,9.97
2019-03-22T20:03:43.678Z,10.50
2019-03-22T20:06:11.933Z,10.67
2019-03-22T20:08:40.450Z,10.03
2019-03-22T20:11:08.712Z,10.77
2019-03-22T20:13:37.217Z,9.83
2019-03-22T20:16:05.473Z,11.00
2019-03-22T20:18:33.736Z,9.80
2019-03-22T20:21:02.025Z,10.27
2019-03-22T20:23:30.355Z,10.20
2019-03-22T20:25:58.885Z,11.17
2019-03-22T20:28:27.135Z,9.83
2019-03-22T20:30:55.409Z,10.53
2019-03-22T20:33:23.663Z,10.13
2019-03-22T20:35:51.935Z,10.30
2019-03-22T20:38:20.264Z,10.33
2019-03-22T20:40:48.532Z,9.90
2019-03-22T20:43:16.873Z,10.53
2019-03-22T20:45:45.145Z,10.40
2019-03-22T20:48:13.425Z,9.87
2019-03-22T20:50:41.687Z,9.30
2019-03-22T20:53:09.953Z,9.67
2019-03-22T20:55:38.221Z,9.67
2019-03-22T20:58:06.472Z,9.67
2019-03-22T21:00:34.758Z,9.53
2019-03-22T21:03:03.078Z,9.73
2019-03-22T21:05:31.416Z,9.50
2019-03-22T21:07:59.671Z,10.57
2019-03-22T21:10:28.000Z,9.90
2019-03-22T21:12:56.605Z,9.97
2019-03-22T21:15:25.020Z,9.30
2019-03-22T21:17:53.298Z,9.60
2019-03-22T21:20:21.544Z,9.20
2019-03-22T21:22:49.803Z,10.03
2019-03-22T21:25:18.321Z,9.73
2019-03-22T21:27:46.572Z,9.43
2019-03-22T21:30:15.313Z,9.07
2019-03-22T21:32:45.471Z,9.00
2019-03-22T21:35:22.007Z,9.40
2019-03-22T21:37:43.806Z,9.67
2019-03-22T21:40:12.057Z,9.37
2019-03-22T21:42:40.337Z,9.50
2019-03-22T21:45:09.771Z,9.90
2019-03-22T21:47:38.051Z,9.63
2019-03-22T21:50:06.942Z,9.80
2019-03-22T21:52:35.178Z,8.93
2019-03-22T21:55:03.440Z,9.80
2019-03-22T21:57:31.710Z,8.87
2019-03-22T21:59:59.981Z,9.23
2019-03-22T22:02:28.492Z,9.17
2019-03-22T22:04:56.784Z,10.17
2019-03-22T22:07:25.033Z,10.13
2019-03-22T22:09:53.281Z,9.30
2019-03-22T22:12:21.544Z,9.80
2019-03-22T22:14:49.820Z,9.20
2019-03-22T22:17:18.099Z,8.73
2019-03-22T22:19:46.440Z,9.67
2019-03-22T22:22:14.714Z,8.80
2019-03-22T22:24:43.184Z,9.10
2019-03-22T22:27:13.975Z,8.87
2019-03-22T22:29:41.525Z,8.90
2019-03-22T22:32:09.770Z,8.63
2019-03-22T22:34:38.289Z,9.00
2019-03-22T22:37:06.569Z,9.23
2019-03-22T22:39:34.849Z,9.43
2019-03-22T22:42:03.144Z,9.33
2019-03-22T22:44:31.418Z,8.77
2019-03-22T22:46:59.657Z,8.97
2019-03-22T22:49:27.942Z,8.47
2019-03-22T22:51:56.209Z,8.70
2019-03-22T22:54:24.481Z,8.90
2019-03-22T22:56:52.713Z,8.93
2019-03-22T22:59:20.998Z,8.87
2019-03-22T23:01:49.251Z,8.63
2019-03-22T23:04:17.486Z,8.97
2019-03-22T23:06:45.766Z,8.13
2019-03-22T23:09:14.048Z,8.53
2019-03-22T23:11:42.420Z,9.00
2019-03-22T23:14:10.684Z,9.17
2019-03-22T23:16:38.958Z,9.17
2019-03-22T23:19:07.233Z,9.43
2019-03-22T23:21:35.481Z,9.00
2019-03-22T23:24:03.795Z,8.93
2019-03-22T23:26:32.285Z,8.50
2019-03-22T23:29:00.788Z,8.40
2019-03-22T23:31:29.088Z,8.80
2019-03-22T23:33:57.432Z,8.40
2019-03-22T23:36:25.698Z,8.17
2019-03-22T23:38:54.001Z,9.17
2019-03-22T23:41:22.266Z,8.80
2019-03-22T23:43:50.553Z,9.27
2019-03-22T23:46:18.897Z,8.80
2019-03-22T23:48:47.158Z,8.80
2019-03-22T23:51:15.663Z,8.90
2019-03-22T23:53:43.909Z,8.77
2019-03-22T23:56:12.173Z,9.00
2019-03-22T23:58:40.457Z,8.57
